createdAt,value
2019-04-23T00:00:11.322Z,5.23
2019-04-23T00:05:40.777Z,3.23
2019-04-23T00:08:06.700Z,3.80
2019-04-23T00:10:28.797Z,2.47
2019-04-23T00:12:59.125Z,4.10
2019-04-23T00:16:08.940Z,4.00
2019-04-23T00:18:37.784Z,2.40
2019-04-23T00:21:15.522Z,2.80
2019-04-23T00:23:47.994Z,6.37
2019-04-23T00:26:16.189Z,6.20
2019-04-23T00:31:18.305Z,3.73
2019-04-23T00:33:40.874Z,3.20
2019-04-23T00:36:17.574Z,3.47
2019-04-23T00:41:13.922Z,3.40
2019-04-23T00:43:54.849Z,3.90
2019-04-23T00:46:26.373Z,5.73
2019-04-23T00:48:59.213Z,7.60
2019-04-23T00:51:22.341Z,6.37
2019-04-23T00:53:51.873Z,4.43
2019-04-23T00:58:56.415Z,5.05
2019-04-23T01:01:27.210Z,4.05
2019-04-23T01:03:53.091Z,3.20
2019-04-23T01:06:24.202Z,4.58
2019-04-23T01:08:55.423Z,6.92
2019-04-23T01:11:24.811Z,4.22
2019-04-23T01:13:52.997Z,3.77
2019-04-23T01:16:24.771Z,5.00
2019-04-23T01:18:58.081Z,3.55
2019-04-23T01:21:19.822Z,5.75
2019-04-23T01:24:06.214Z,4.80
2019-04-23T01:27:33.890Z,4.42
2019-04-23T01:29:52.503Z,4.45
2019-04-23T01:32:16.850Z,3.92
2019-04-23T01:34:51.355Z,7.15
2019-04-23T01:37:20.667Z,6.12
2019-04-23T01:39:45.442Z,5.28
2019-04-23T01:42:22.791Z,4.20
2019-04-23T01:44:50.682Z,4.62
2019-04-23T01:47:21.478Z,4.17
2019-04-23T01:49:54.010Z,4.17
2019-04-23T01:52:18.030Z,4.90
2019-04-23T01:54:48.363Z,4.10
2019-04-23T01:57:21.134Z,5.17
2019-04-23T01:59:58.355Z,4.58
2019-04-23T02:02:19.455Z,7.50
2019-04-23T02:04:54.218Z,5.15
2019-04-23T02:07:24.172Z,4.17
2019-04-23T02:09:55.604Z,4.85
2019-04-23T02:12:20.619Z,7.90
2019-04-23T02:14:59.491Z,4.30
2019-04-23T02:17:24.752Z,3.92
2019-04-23T02:19:51.730Z,6.20
2019-04-23T02:22:52.356Z,5.12
2019-04-23T02:25:25.089Z,6.75
2019-04-23T02:27:54.091Z,6.12
2019-04-23T02:30:40.943Z,5.90
2019-04-23T02:33:10.455Z,4.33
2019-04-23T02:35:34.116Z,4.55
2019-04-23T02:38:00.659Z,4.95
2019-04-23T02:40:37.358Z,4.10
2019-04-23T02:45:26.764Z,4.75
2019-04-23T02:48:02.841Z,5.47
2019-04-23T02:53:00.003Z,5.80
2019-04-23T02:55:27.099Z,4.03
2019-04-23T02:57:54.287Z,5.35
2019-04-23T03:00:28.832Z,4.35
2019-04-23T03:05:21.618Z,4.33
2019-04-23T03:07:53.262Z,4.67
2019-04-23T03:10:21.135Z,4.03
2019-04-23T03:15:50.067Z,4.05
2019-04-23T03:21:26.917Z,4.80
2019-04-23T03:29:35.409Z,4.75
2019-04-23T03:32:52.725Z,5.55
2019-04-23T03:35:17.846Z,5.45
2019-04-23T03:39:40.381Z,5.00
2019-04-23T03:41:59.699Z,5.37
2019-04-23T03:47:04.086Z,3.83
2019-04-23T03:49:33.350Z,5.62
2019-04-23T03:52:19.307Z,4.80
2019-04-23T03:59:52.193Z,5.83
2019-04-23T04:02:20.769Z,4.37
2019-04-23T04:04:43.386Z,5.62
2019-04-23T04:09:42.567Z,4.90
2019-04-23T04:12:14.301Z,5.42
2019-04-23T04:14:54.555Z,5.00
2019-04-23T04:17:13.802Z,5.55
2019-04-23T04:19:41.775Z,4.65
2019-04-23T04:22:29.225Z,6.17
2019-04-23T04:25:02.407Z,9.70
2019-04-23T04:27:12.322Z,5.72
2019-04-23T04:30:02.368Z,6.20
2019-04-23T04:32:04.303Z,8.75
2019-04-23T04:37:35.550Z,6.00
2019-04-23T04:39:56.797Z,5.45
2019-04-23T04:42:28.605Z,6.37
2019-04-23T04:45:00.744Z,8.90
2019-04-23T04:49:51.662Z,5.40
2019-04-23T04:52:35.946Z,5.87
2019-04-23T04:54:37.606Z,4.83
2019-04-23T04:57:20.455Z,6.45
2019-04-23T05:05:02.351Z,5.53
2019-04-23T05:07:34.060Z,5.75
2019-04-23T05:09:56.398Z,9.13
2019-04-23T05:12:27.519Z,7.20
2019-04-23T05:17:42.253Z,8.95
2019-04-23T05:20:10.459Z,6.25
2019-04-23T05:22:38.976Z,5.95
2019-04-23T05:24:57.154Z,8.35
2019-04-23T05:27:37.087Z,7.42
2019-04-23T05:30:09.961Z,6.95
2019-04-23T05:32:39.397Z,8.08
2019-04-23T05:35:03.497Z,10.43
2019-04-23T05:37:45.255Z,9.58
2019-04-23T05:40:12.198Z,5.50
2019-04-23T05:42:33.093Z,6.40
2019-04-23T05:45:15.856Z,6.87
2019-04-23T05:47:50.623Z,7.87
2019-04-23T05:50:09.951Z,7.33
2019-04-23T05:52:41.358Z,6.20
2019-04-23T05:55:02.177Z,6.40
2019-04-23T05:57:34.556Z,7.92
2019-04-23T06:00:02.166Z,6.95
2019-04-23T06:02:33.693Z,8.55
2019-04-23T06:05:05.616Z,8.30
2019-04-23T06:12:31.435Z,6.10
2019-04-23T06:17:33.579Z,10.98
2019-04-23T06:20:05.897Z,14.05
2019-04-23T06:22:36.255Z,8.63
2019-04-23T06:25:31.579Z,7.47
2019-04-23T06:27:35.147Z,9.18
2019-04-23T06:30:00.907Z,8.03
2019-04-23T06:32:31.385Z,10.58
2019-04-23T06:34:56.707Z,7.75
2019-04-23T06:40:05.344Z,13.15
2019-04-23T06:42:29.544Z,7.78
2019-04-23T06:45:04.716Z,7.80
2019-04-23T06:47:35.678Z,6.70
2019-04-23T06:50:08.551Z,7.03
2019-04-23T06:52:50.593Z,6.87
2019-04-23T06:55:15.813Z,10.13
2019-04-23T06:57:44.176Z,6.57
2019-04-23T07:00:11.845Z,6.30
2019-04-23T07:02:42.138Z,8.53
2019-04-23T07:05:08.641Z,7.90
2019-04-23T07:10:07.286Z,7.33
2019-04-23T07:12:36.402Z,5.33
2019-04-23T07:15:36.323Z,6.70
2019-04-23T07:17:28.998Z,6.13
2019-04-23T07:20:18.084Z,7.80
2019-04-23T07:22:34.671Z,8.13
2019-04-23T07:25:08.174Z,11.80
2019-04-23T07:27:30.060Z,7.67
2019-04-23T07:30:11.642Z,9.10
2019-04-23T07:32:35.766Z,10.30
2019-04-23T07:35:17.997Z,6.80
2019-04-23T07:37:40.038Z,9.80
2019-04-23T07:42:58.260Z,6.90
2019-04-23T07:45:45.379Z,7.40
2019-04-23T07:48:13.352Z,8.43
2019-04-23T07:50:49.118Z,15.43
2019-04-23T07:53:17.260Z,7.87
2019-04-23T07:58:23.720Z,7.50
2019-04-23T08:05:47.173Z,6.53
2019-04-23T08:08:16.868Z,14.87
2019-04-23T08:11:40.682Z,12.97
2019-04-23T08:18:57.612Z,11.60
2019-04-23T08:21:40.210Z,8.53
2019-04-23T08:24:25.814Z,8.73
2019-04-23T08:26:59.630Z,7.30
2019-04-23T08:29:32.341Z,13.77
2019-04-23T08:32:18.692Z,9.73
2019-04-23T08:34:48.281Z,8.70
2019-04-23T08:37:15.419Z,9.23
2019-04-23T08:39:43.319Z,7.40
2019-04-23T08:45:10.546Z,8.53
2019-04-23T08:47:40.705Z,10.10
2019-04-23T08:50:09.215Z,12.20
2019-04-23T08:52:34.659Z,6.43
2019-04-23T08:55:11.352Z,7.23
2019-04-23T09:00:09.325Z,6.40
2019-04-23T09:05:16.196Z,11.00
2019-04-23T09:07:59.852Z,11.40
2019-04-23T09:10:11.430Z,7.57
2019-04-23T09:13:10.108Z,7.47
2019-04-23T09:15:16.851Z,6.40
2019-04-23T09:17:49.717Z,6.73
2019-04-23T09:22:38.830Z,9.03
2019-04-23T09:25:24.368Z,6.07
2019-04-23T09:27:42.079Z,6.10
2019-04-23T09:30:14.734Z,5.67
2019-04-23T09:32:42.200Z,7.50
2019-04-23T09:35:35.953Z,7.50
2019-04-23T09:38:39.950Z,9.97
2019-04-23T09:44:56.271Z,7.77
2019-04-23T09:47:37.215Z,8.23
2019-04-23T09:50:06.734Z,9.20
2019-04-23T09:55:04.718Z,6.27
2019-04-23T09:57:35.962Z,9.47
2019-04-23T10:00:25.595Z,9.33
2019-04-23T10:02:28.253Z,5.77
2019-04-23T10:04:54.462Z,9.53
2019-04-23T10:07:23.824Z,7.63
2019-04-23T10:09:36.416Z,9.23
2019-04-23T10:12:07.190Z,7.27
2019-04-23T10:14:36.609Z,7.07
2019-04-23T10:17:06.449Z,7.00
2019-04-23T10:19:36.942Z,6.33
2019-04-23T10:22:06.864Z,5.87
2019-04-23T10:24:37.007Z,5.83
2019-04-23T10:27:08.302Z,5.87
2019-04-23T10:29:38.455Z,5.77
2019-04-23T10:32:07.525Z,6.40
2019-04-23T10:34:46.072Z,7.77
2019-04-23T10:37:07.318Z,9.50
2019-04-23T10:39:38.984Z,8.73
2019-04-23T10:42:07.777Z,6.80
2019-04-23T10:44:52.508Z,6.50
2019-04-23T10:51:04.465Z,7.10
2019-04-23T10:53:29.959Z,6.00
2019-04-23T10:56:00.969Z,7.63
2019-04-23T11:01:00.221Z,7.10
2019-04-23T11:06:15.093Z,6.30
2019-04-23T11:08:31.013Z,6.83
2019-04-23T11:11:09.412Z,6.30
2019-04-23T11:13:48.754Z,6.37
2019-04-23T11:16:47.303Z,6.03
2019-04-23T11:21:24.007Z,9.83
2019-04-23T11:23:49.849Z,9.33
2019-04-23T11:26:21.616Z,5.40
2019-04-23T11:28:45.116Z,6.80
2019-04-23T11:31:31.593Z,7.70
2019-04-23T11:34:01.915Z,6.10
2019-04-23T11:41:35.067Z,8.87
2019-04-23T11:43:53.384Z,9.63
2019-04-23T11:51:46.045Z,9.03
2019-04-23T11:56:51.035Z,5.63
2019-04-23T11:59:06.949Z,7.10
2019-04-23T12:01:52.902Z,7.73
2019-04-23T12:05:01.024Z,6.60
2019-04-23T12:10:22.267Z,6.10
2019-04-23T12:12:39.885Z,5.77
2019-04-23T12:15:18.383Z,12.97
2019-04-23T12:22:57.562Z,7.00
2019-04-23T12:27:39.811Z,13.80
2019-04-23T12:30:24.894Z,6.80
2019-04-23T12:37:55.185Z,6.97
2019-04-23T12:48:15.609Z,7.50
2019-04-23T12:50:44.901Z,10.33
2019-04-23T13:02:58.882Z,6.50
2019-04-23T13:05:31.209Z,5.70
2019-04-23T13:08:01.955Z,11.23
2019-04-23T13:13:07.791Z,10.20
2019-04-23T13:15:34.547Z,9.70
2019-04-23T13:18:06.004Z,7.00
2019-04-23T13:20:32.107Z,7.00
2019-04-23T13:25:54.279Z,6.77
2019-04-23T13:33:34.734Z,9.70
2019-04-23T13:38:34.941Z,9.87
2019-04-23T13:41:03.065Z,11.03
2019-04-23T13:48:19.970Z,8.17
2019-04-23T13:51:19.801Z,8.53
2019-04-23T13:55:52.955Z,8.63
2019-04-23T14:03:39.680Z,7.27
2019-04-23T14:08:53.773Z,13.40
2019-04-23T14:11:23.527Z,7.03
2019-04-23T14:13:55.057Z,9.20
2019-04-23T14:16:28.959Z,10.80
2019-04-23T14:21:35.289Z,6.83
2019-04-23T14:28:45.033Z,9.37
2019-04-23T14:31:23.379Z,6.23
2019-04-23T14:34:01.291Z,9.87
2019-04-23T14:36:30.428Z,6.10
2019-04-23T14:39:04.219Z,12.10
2019-04-23T14:44:10.741Z,7.17
2019-04-23T14:49:25.561Z,11.67
2019-04-23T14:51:44.202Z,6.80
2019-04-23T14:54:13.376Z,5.60
2019-04-23T14:56:46.301Z,6.17
2019-04-23T14:59:21.854Z,12.73
2019-04-23T15:04:10.935Z,10.60
2019-04-23T15:07:01.333Z,8.20
2019-04-23T15:09:27.340Z,8.00
2019-04-23T15:11:59.712Z,6.10
2019-04-23T15:14:17.183Z,10.97
2019-04-23T15:16:56.374Z,8.13
2019-04-23T15:22:04.623Z,9.37
2019-04-23T15:29:13.320Z,8.97
2019-04-23T15:34:25.106Z,12.80
2019-04-23T15:42:08.069Z,9.50
2019-04-23T15:44:43.837Z,8.47
2019-04-23T15:49:45.797Z,12.90
2019-04-23T15:52:00.697Z,9.37
2019-04-23T15:54:35.162Z,11.00
2019-04-23T15:57:01.206Z,8.00
2019-04-23T15:59:34.937Z,6.37
2019-04-23T16:01:41.373Z,8.40
2019-04-23T16:04:01.233Z,7.23
2019-04-23T16:06:32.632Z,13.83
2019-04-23T16:09:21.413Z,7.33
2019-04-23T16:12:17.621Z,9.30
2019-04-23T16:14:46.070Z,11.57
2019-04-23T16:17:10.223Z,9.07
2019-04-23T16:19:56.014Z,10.93
2019-04-23T16:22:28.466Z,12.37
2019-04-23T16:24:51.895Z,9.83
2019-04-23T16:27:20.154Z,9.87
2019-04-23T16:29:55.488Z,8.80
2019-04-23T16:34:48.613Z,10.10
2019-04-23T16:37:22.723Z,16.23
2019-04-23T16:39:56.767Z,10.03
2019-04-23T16:42:27.281Z,9.07
2019-04-23T16:47:24.558Z,11.80
2019-04-23T16:52:24.508Z,9.00
2019-04-23T17:02:24.762Z,10.90
2019-04-23T17:05:02.844Z,10.47
2019-04-23T17:07:21.024Z,9.77
2019-04-23T17:10:09.061Z,9.10
2019-04-23T17:12:17.492Z,10.53
2019-04-23T17:15:03.082Z,11.63
2019-04-23T17:17:25.117Z,9.33
2019-04-23T17:20:03.002Z,11.60
2019-04-23T17:22:24.660Z,9.90
2019-04-23T17:25:07.396Z,9.13
2019-04-23T17:27:33.127Z,11.63
2019-04-23T17:30:09.677Z,13.33
2019-04-23T17:32:47.318Z,13.50
2019-04-23T17:35:24.420Z,13.30
2019-04-23T17:38:21.000Z,13.13
2019-04-23T17:40:39.978Z,8.17
2019-04-23T17:43:14.762Z,10.33
2019-04-23T17:45:32.515Z,9.37
2019-04-23T17:56:01.207Z,11.47
2019-04-23T17:58:26.863Z,8.97
2019-04-23T18:01:11.298Z,11.60
2019-04-23T18:03:34.690Z,12.33
2019-04-23T18:08:27.723Z,7.47
2019-04-23T18:11:12.975Z,11.97
2019-04-23T18:16:08.464Z,15.13
2019-04-23T18:18:40.278Z,8.57
2019-04-23T18:21:29.160Z,12.20
2019-04-23T18:24:17.538Z,16.57
2019-04-23T18:26:58.010Z,10.73
2019-04-23T18:29:45.805Z,9.33
2019-04-23T18:32:58.354Z,13.23
2019-04-23T18:35:28.302Z,14.60
2019-04-23T18:37:42.274Z,9.00
2019-04-23T18:40:05.207Z,11.73
2019-04-23T18:45:14.969Z,12.20
2019-04-23T18:47:45.527Z,9.50
2019-04-23T18:50:22.977Z,13.83
2019-04-23T18:52:58.518Z,21.13
2019-04-23T18:55:29.861Z,13.17
2019-04-23T18:57:51.896Z,13.97
2019-04-23T19:00:27.165Z,16.17
2019-04-23T19:03:17.424Z,13.07
2019-04-23T19:06:00.322Z,10.50
2019-04-23T19:09:01.053Z,10.77
2019-04-23T19:14:25.683Z,10.40
2019-04-23T19:19:22.228Z,19.60
2019-04-23T19:24:21.351Z,11.50
2019-04-23T19:29:30.627Z,11.37
2019-04-23T19:32:10.609Z,11.57
2019-04-23T19:39:36.888Z,14.07
2019-04-23T19:42:03.620Z,13.03
2019-04-23T19:52:34.522Z,11.07
2019-04-23T19:54:52.689Z,7.27
2019-04-23T19:57:13.301Z,9.80
2019-04-23T19:59:51.174Z,10.53
2019-04-23T20:02:17.351Z,13.07
2019-04-23T20:07:22.758Z,13.47
2019-04-23T20:12:13.277Z,14.97
2019-04-23T20:14:48.917Z,21.00
2019-04-23T20:17:31.815Z,21.07
2019-04-23T20:22:26.090Z,20.90
2019-04-23T20:27:23.493Z,23.50
2019-04-23T20:40:23.821Z,11.30
2019-04-23T20:42:53.349Z,13.33
2019-04-23T20:45:20.523Z,15.47
2019-04-23T20:48:01.970Z,12.10
2019-04-23T20:50:27.661Z,21.47
2019-04-23T20:52:57.504Z,14.97
2019-04-23T20:55:52.773Z,12.07
2019-04-23T20:58:42.473Z,12.63
2019-04-23T21:01:13.286Z,14.20
2019-04-23T21:03:46.514Z,12.97
2019-04-23T21:06:10.387Z,17.50
2019-04-23T21:09:05.745Z,14.20
2019-04-23T21:11:13.828Z,16.30
2019-04-23T21:16:13.108Z,14.27
2019-04-23T21:19:02.551Z,13.23
2019-04-23T21:21:22.183Z,14.00
2019-04-23T21:23:50.400Z,12.97
2019-04-23T21:26:10.625Z,14.83
2019-04-23T21:28:47.511Z,11.80
2019-04-23T21:31:21.006Z,14.97
2019-04-23T21:34:05.787Z,10.97
2019-04-23T21:36:49.366Z,13.77
2019-04-23T21:42:44.348Z,14.30
2019-04-23T21:45:02.203Z,11.23
2019-04-23T21:47:38.560Z,12.03
2019-04-23T21:50:11.842Z,11.63
2019-04-23T21:52:34.372Z,14.30
2019-04-23T21:55:02.449Z,10.17
2019-04-23T21:57:50.317Z,13.03
2019-04-23T21:59:59.190Z,11.50
2019-04-23T22:02:45.472Z,12.27
2019-04-23T22:05:09.445Z,12.30
2019-04-23T22:07:44.096Z,10.40
2019-04-23T22:10:07.713Z,11.30
2019-04-23T22:12:46.825Z,10.20
2019-04-23T22:15:22.243Z,11.83
2019-04-23T22:17:42.694Z,16.77
2019-04-23T22:22:51.284Z,12.30
2019-04-23T22:25:31.932Z,10.77
2019-04-23T22:27:42.694Z,11.00
2019-04-23T22:30:07.706Z,18.33
2019-04-23T22:35:07.582Z,14.47
2019-04-23T22:37:48.434Z,9.87
2019-04-23T22:40:04.687Z,17.57
2019-04-23T22:47:44.438Z,12.43
2019-04-23T22:50:06.306Z,9.67
2019-04-23T22:52:40.695Z,12.57
2019-04-23T22:55:07.291Z,10.23
2019-04-23T22:57:56.005Z,10.80
2019-04-23T23:00:16.498Z,13.90
2019-04-23T23:03:22.647Z,12.63
2019-04-23T23:06:09.022Z,10.50
2019-04-23T23:08:40.839Z,10.43
2019-04-23T23:13:20.623Z,10.17
2019-04-23T23:16:02.992Z,9.67
2019-04-23T23:23:22.199Z,9.30
2019-04-23T23:25:59.157Z,9.70
2019-04-23T23:28:26.900Z,9.23
2019-04-23T23:31:05.336Z,10.60
2019-04-23T23:33:27.215Z,10.13
2019-04-23T23:35:59.695Z,8.80
2019-04-23T23:41:03.777Z,12.33
2019-04-23T23:43:25.970Z,14.20
2019-04-23T23:46:06.612Z,8.87
2019-04-23T23:48:18.738Z,8.90
2019-04-23T23:51:04.398Z,11.33
2019-04-23T23:53:29.847Z,11.43
2019-04-23T23:58:29.038Z,10.50
